createdAt,value
2023-09-22T00:00:10.446Z,88.85
2023-09-22T00:01:10.446Z,88.94
2023-09-22T00:02:10.454Z,89.24
2023-09-22T00:03:10.454Z,89.93
2023-09-22T00:04:10.505Z,90.80
2023-09-22T00:05:10.415Z,90.43
2023-09-22T00:06:10.408Z,90.54
2023-09-22T00:07:10.355Z,91.29
2023-09-22T00:08:10.404Z,91.45
2023-09-22T00:09:10.362Z,91.87
2023-09-22T00:10:10.380Z,92.80
2023-09-22T00:11:10.351Z,93.08
2023-09-22T00:12:10.324Z,93.68
2023-09-22T00:13:10.379Z,93.62
2023-09-22T00:14:10.284Z,93.78
2023-09-22T00:15:10.295Z,93.09
2023-09-22T00:16:10.289Z,92.72
2023-09-22T00:17:10.269Z,92.48
2023-09-22T00:18:10.324Z,92.84
2023-09-22T00:19:10.374Z,92.95
2023-09-22T00:20:10.243Z,93.54
2023-09-22T00:21:10.232Z,93.38
2023-09-22T00:22:10.222Z,93.43
2023-09-22T00:23:10.231Z,93.05
2023-09-22T00:24:10.179Z,92.74
2023-09-22T00:25:10.222Z,93.91
2023-09-22T00:26:10.165Z,94.26
2023-09-22T00:27:10.189Z,94.63
2023-09-22T00:28:10.292Z,94.62
2023-09-22T00:29:10.205Z,94.85
2023-09-22T00:30:10.151Z,95.81
2023-09-22T00:31:10.210Z,96.00
2023-09-22T00:32:10.173Z,96.06
2023-09-22T00:33:10.241Z,96.25
2023-09-22T00:34:10.182Z,96.43
2023-09-22T00:35:10.091Z,96.03
2023-09-22T00:36:10.080Z,95.60
2023-09-22T00:37:10.075Z,95.51
2023-09-22T00:38:10.106Z,95.14
2023-09-22T00:39:10.050Z,95.04
2023-09-22T00:40:10.102Z,95.26
2023-09-22T00:41:10.022Z,95.20
2023-09-22T00:42:10.113Z,95.05
2023-09-22T00:43:10.026Z,95.01
2023-09-22T00:44:10.049Z,94.84
2023-09-22T00:45:10.055Z,94.33
2023-09-22T00:46:10.002Z,94.04
2023-09-22T00:47:09.956Z,91.74
2023-09-22T00:48:09.941Z,89.59
2023-09-22T00:49:09.924Z,88.81
2023-09-22T00:50:09.992Z,88.34
2023-09-22T00:51:09.916Z,87.39
2023-09-22T00:52:09.906Z,86.80
2023-09-22T00:53:09.919Z,87.54
2023-09-22T00:54:09.867Z,89.17
2023-09-22T00:55:09.881Z,90.00
2023-09-22T00:56:09.942Z,90.55
2023-09-22T00:57:09.860Z,90.61
2023-09-22T00:58:09.843Z,90.59
2023-09-22T00:59:09.844Z,90.50
2023-09-22T01:00:09.858Z,89.74
2023-09-22T01:01:09.801Z,86.98
2023-09-22T01:02:09.924Z,85.21
2023-09-22T01:03:09.928Z,83.66
2023-09-22T01:04:09.901Z,83.21
2023-09-22T01:05:09.934Z,84.43
2023-09-22T01:06:09.746Z,84.15
2023-09-22T01:07:09.762Z,84.08
2023-09-22T01:08:09.769Z,83.99
2023-09-22T01:09:09.737Z,83.44
2023-09-22T01:10:09.708Z,83.02
2023-09-22T01:11:09.702Z,82.49
2023-09-22T01:12:09.953Z,81.77
2023-09-22T01:13:09.691Z,81.84
2023-09-22T01:14:09.680Z,81.44
2023-09-22T01:15:09.680Z,80.75
2023-09-22T01:16:09.701Z,81.09
2023-09-22T01:17:09.653Z,80.71
2023-09-22T01:18:09.754Z,80.67
2023-09-22T01:19:09.616Z,80.78
2023-09-22T01:20:09.634Z,80.86
2023-09-22T01:21:09.611Z,80.73
2023-09-22T01:22:09.594Z,80.61
2023-09-22T01:23:09.563Z,80.83
2023-09-22T01:24:09.604Z,80.23
2023-09-22T01:25:09.572Z,80.15
2023-09-22T01:26:09.558Z,79.97
2023-09-22T01:27:09.545Z,80.07
2023-09-22T01:28:09.522Z,79.81
2023-09-22T01:29:09.526Z,79.60
2023-09-22T01:30:09.554Z,79.63
2023-09-22T01:31:09.504Z,79.23
2023-09-22T01:32:09.452Z,77.97
2023-09-22T01:33:09.500Z,77.78
2023-09-22T01:34:09.714Z,78.01
2023-09-22T01:35:09.543Z,78.00
2023-09-22T01:36:09.447Z,77.54
2023-09-22T01:37:09.435Z,77.84
2023-09-22T01:38:09.416Z,77.45
2023-09-22T01:39:09.467Z,77.76
2023-09-22T01:40:09.433Z,77.37
2023-09-22T01:41:09.492Z,77.51
2023-09-22T01:42:09.397Z,77.74
2023-09-22T01:43:09.372Z,77.71
2023-09-22T01:44:09.364Z,78.22
2023-09-22T01:45:09.331Z,78.24
2023-09-22T01:46:09.384Z,78.60
2023-09-22T01:47:09.382Z,78.15
2023-09-22T01:48:09.526Z,78.74
2023-09-22T01:49:09.293Z,78.71
2023-09-22T01:50:09.295Z,79.09
2023-09-22T01:51:09.284Z,79.32
2023-09-22T01:52:09.271Z,79.27
2023-09-22T01:53:09.413Z,79.31
2023-09-22T01:54:09.276Z,79.33
2023-09-22T01:55:09.229Z,79.28
2023-09-22T01:56:09.241Z,79.20
2023-09-22T01:57:09.225Z,79.29
2023-09-22T01:58:09.212Z,79.21
2023-09-22T01:59:09.238Z,79.42
2023-09-22T02:00:09.198Z,78.90
2023-09-22T02:01:09.201Z,79.28
2023-09-22T02:02:09.169Z,78.95
2023-09-22T02:03:09.194Z,79.09
2023-09-22T02:04:09.389Z,78.81
2023-09-22T02:05:09.261Z,78.78
2023-09-22T02:06:09.120Z,78.88
2023-09-22T02:07:09.120Z,78.68
2023-09-22T02:08:09.097Z,78.72
2023-09-22T02:09:09.137Z,78.65
2023-09-22T02:10:09.085Z,78.83
2023-09-22T02:11:09.084Z,78.71
2023-09-22T02:12:09.075Z,78.85
2023-09-22T02:13:09.058Z,78.82
2023-09-22T02:14:09.128Z,78.77
2023-09-22T02:15:09.070Z,78.89
2023-09-22T02:16:09.153Z,78.56
2023-09-22T02:17:09.013Z,78.11
2023-09-22T02:18:09.058Z,78.69
2023-09-22T02:19:09.056Z,78.55
2023-09-22T02:20:09.006Z,78.42
2023-09-22T02:21:08.963Z,78.23
2023-09-22T02:22:08.939Z,77.74
2023-09-22T02:23:08.967Z,77.55
2023-09-22T02:24:09.329Z,77.78
2023-09-22T02:25:08.956Z,77.52
2023-09-22T02:26:09.032Z,77.60
2023-09-22T02:27:08.901Z,77.22
2023-09-22T02:28:08.891Z,77.26
2023-09-22T02:29:08.915Z,76.92
2023-09-22T02:30:08.929Z,77.73
2023-09-22T02:31:08.962Z,77.41
2023-09-22T02:32:08.834Z,76.94
2023-09-22T02:33:08.944Z,77.03
2023-09-22T02:34:08.857Z,76.55
2023-09-22T02:35:08.786Z,76.36
2023-09-22T02:36:08.862Z,76.20
2023-09-22T02:37:08.796Z,76.13
2023-09-22T02:38:08.770Z,75.76
2023-09-22T02:39:08.772Z,76.57
2023-09-22T02:40:08.789Z,76.95
2023-09-22T02:41:08.801Z,77.25
2023-09-22T02:42:08.729Z,77.75
2023-09-22T02:43:08.705Z,77.96
2023-09-22T02:44:08.727Z,78.04
2023-09-22T02:45:08.701Z,77.77
2023-09-22T02:46:08.820Z,77.29
2023-09-22T02:47:08.953Z,77.04
2023-09-22T02:48:08.733Z,77.11
2023-09-22T02:49:08.673Z,77.38
2023-09-22T02:50:08.642Z,77.07
2023-09-22T02:51:08.628Z,76.64
2023-09-22T02:52:10.989Z,76.75
2023-09-22T02:53:08.674Z,76.32
2023-09-22T02:54:08.632Z,76.41
2023-09-22T02:55:08.594Z,76.90
2023-09-22T02:56:08.598Z,77.04
2023-09-22T02:57:08.580Z,76.80
2023-09-22T02:58:08.602Z,76.90
2023-09-22T02:59:08.557Z,77.28
2023-09-22T03:00:08.530Z,77.56
2023-09-22T03:01:08.591Z,77.22
2023-09-22T03:02:08.580Z,77.41
2023-09-22T03:03:08.689Z,77.38
2023-09-22T03:04:08.577Z,77.58
2023-09-22T03:05:08.495Z,78.18
2023-09-22T03:06:08.477Z,78.65
2023-09-22T03:07:08.476Z,78.53
2023-09-22T03:08:08.451Z,78.60
2023-09-22T03:09:09.036Z,78.15
2023-09-22T03:10:08.451Z,78.40
2023-09-22T03:11:08.436Z,78.26
2023-09-22T03:12:08.405Z,78.17
2023-09-22T03:13:08.373Z,77.64
2023-09-22T03:14:08.401Z,77.63
2023-09-22T03:15:08.445Z,77.51
2023-09-22T03:16:08.391Z,77.38
2023-09-22T03:17:08.357Z,77.53
2023-09-22T03:18:08.358Z,77.54
2023-09-22T03:19:08.399Z,77.82
2023-09-22T03:20:08.342Z,77.91
2023-09-22T03:21:08.367Z,77.64
2023-09-22T03:22:08.298Z,77.67
2023-09-22T03:23:08.302Z,77.66
2023-09-22T03:24:08.289Z,77.36
2023-09-22T03:25:08.310Z,77.97
2023-09-22T03:26:08.292Z,78.28
2023-09-22T03:27:08.281Z,78.84
2023-09-22T03:28:08.253Z,78.36
2023-09-22T03:29:08.241Z,78.36
2023-09-22T03:30:08.215Z,78.06
2023-09-22T03:31:08.332Z,78.41
2023-09-22T03:32:08.196Z,78.17
2023-09-22T03:33:08.249Z,77.79
2023-09-22T03:34:08.205Z,77.69
2023-09-22T03:35:08.192Z,77.95
2023-09-22T03:36:08.530Z,78.47
2023-09-22T03:37:08.172Z,78.66
2023-09-22T03:38:08.149Z,79.06
2023-09-22T03:39:08.137Z,79.00
2023-09-22T03:40:08.130Z,79.16
2023-09-22T03:41:08.096Z,79.05
2023-09-22T03:42:08.135Z,78.96
2023-09-22T03:43:08.118Z,78.96
2023-09-22T03:44:08.084Z,78.83
2023-09-22T03:45:08.077Z,78.65
2023-09-22T03:46:08.059Z,78.66
2023-09-22T03:47:08.026Z,78.92
2023-09-22T03:48:08.105Z,78.90
2023-09-22T03:49:08.103Z,78.99
2023-09-22T03:50:08.031Z,78.82
2023-09-22T03:51:08.003Z,78.40
2023-09-22T03:52:07.996Z,78.74
2023-09-22T03:53:08.525Z,78.54
2023-09-22T03:54:07.966Z,78.77
2023-09-22T03:55:07.959Z,78.77
2023-09-22T03:56:07.945Z,78.84
2023-09-22T03:57:08.040Z,79.01
2023-09-22T03:58:07.981Z,79.30
2023-09-22T03:59:07.938Z,79.61
2023-09-22T04:00:07.889Z,79.84
2023-09-22T04:01:08.002Z,80.23
2023-09-22T04:02:08.009Z,80.34
2023-09-22T04:03:08.065Z,80.10
2023-09-22T04:04:07.913Z,80.08
2023-09-22T04:05:07.849Z,80.26
2023-09-22T04:06:07.819Z,80.26
2023-09-22T04:07:07.811Z,80.31
2023-09-22T04:08:07.854Z,80.00
2023-09-22T04:09:07.800Z,80.04
2023-09-22T04:10:07.849Z,79.99
2023-09-22T04:11:07.751Z,80.27
2023-09-22T04:12:07.775Z,80.32
2023-09-22T04:13:07.806Z,80.00
2023-09-22T04:14:07.731Z,80.10
2023-09-22T04:15:07.764Z,80.31
2023-09-22T04:16:07.763Z,80.45
2023-09-22T04:17:07.817Z,80.28
2023-09-22T04:18:07.761Z,80.38
2023-09-22T04:19:07.775Z,80.37
2023-09-22T04:20:07.686Z,80.33
2023-09-22T04:21:07.668Z,80.44
2023-09-22T04:22:07.653Z,80.18
2023-09-22T04:23:07.644Z,80.17
2023-09-22T04:24:07.676Z,80.13
2023-09-22T04:25:07.610Z,79.75
2023-09-22T04:26:07.620Z,80.02
2023-09-22T04:27:07.599Z,80.06
2023-09-22T04:28:07.632Z,79.81
2023-09-22T04:29:07.603Z,80.05
2023-09-22T04:30:07.618Z,80.33
2023-09-22T04:31:07.613Z,79.99
2023-09-22T04:32:07.558Z,79.75
2023-09-22T04:33:07.702Z,79.75
2023-09-22T04:34:07.578Z,79.84
2023-09-22T04:35:07.500Z,79.47
2023-09-22T04:36:07.530Z,79.90
2023-09-22T04:37:07.491Z,79.52
2023-09-22T04:38:07.476Z,79.69
2023-09-22T04:39:07.470Z,79.60
2023-09-22T04:40:07.435Z,79.63
2023-09-22T04:41:07.502Z,79.88
2023-09-22T04:42:07.450Z,80.01
2023-09-22T04:43:07.443Z,80.10
2023-09-22T04:44:07.426Z,80.12
2023-09-22T04:45:07.403Z,80.30
2023-09-22T04:46:07.485Z,80.05
2023-09-22T04:47:07.514Z,79.98
2023-09-22T04:48:07.456Z,80.00
2023-09-22T04:49:07.373Z,80.29
2023-09-22T04:50:07.337Z,80.24
2023-09-22T04:51:07.331Z,80.28
2023-09-22T04:52:07.407Z,80.16
2023-09-22T04:53:07.379Z,80.17
2023-09-22T04:54:07.299Z,80.49
2023-09-22T04:55:07.332Z,80.51
2023-09-22T04:56:07.383Z,80.74
2023-09-22T04:57:07.291Z,80.48
2023-09-22T04:58:07.366Z,80.40
2023-09-22T04:59:07.291Z,80.62
2023-09-22T05:00:07.319Z,80.65
2023-09-22T05:01:07.303Z,80.68
2023-09-22T05:02:07.247Z,80.89
2023-09-22T05:03:07.585Z,81.03
2023-09-22T05:04:07.287Z,81.30
2023-09-22T05:05:07.191Z,81.27
2023-09-22T05:06:07.197Z,81.45
2023-09-22T05:07:07.199Z,81.62
2023-09-22T05:08:07.159Z,81.57
2023-09-22T05:09:07.189Z,81.59
2023-09-22T05:10:07.155Z,81.70
2023-09-22T05:11:07.131Z,81.82
2023-09-22T05:12:07.115Z,82.11
2023-09-22T05:13:07.158Z,82.47
2023-09-22T05:14:07.132Z,82.71
2023-09-22T05:15:07.118Z,82.74
2023-09-22T05:16:07.190Z,82.64
2023-09-22T05:17:07.065Z,82.84
2023-09-22T05:18:07.105Z,82.84
2023-09-22T05:19:07.087Z,83.04
2023-09-22T05:20:07.059Z,83.34
2023-09-22T05:21:07.070Z,83.19
2023-09-22T05:22:07.088Z,83.13
2023-09-22T05:23:06.999Z,83.16
2023-09-22T05:24:06.995Z,83.08
2023-09-22T05:25:06.998Z,82.94
2023-09-22T05:26:06.969Z,82.81
2023-09-22T05:27:07.031Z,83.19
2023-09-22T05:28:07.015Z,83.20
2023-09-22T05:29:06.925Z,82.89
2023-09-22T05:30:06.939Z,82.96
2023-09-22T05:31:08.041Z,83.33
2023-09-22T05:32:06.898Z,83.67
2023-09-22T05:33:06.982Z,84.09
2023-09-22T05:34:06.945Z,83.68
2023-09-22T05:35:06.893Z,83.84
2023-09-22T05:36:06.858Z,83.94
2023-09-22T05:37:06.885Z,83.82
2023-09-22T05:38:06.834Z,83.72
2023-09-22T05:39:06.875Z,83.13
2023-09-22T05:40:06.913Z,82.95
2023-09-22T05:41:06.818Z,83.00
2023-09-22T05:42:06.796Z,83.19
2023-09-22T05:43:06.843Z,82.95
2023-09-22T05:44:06.786Z,82.89
2023-09-22T05:45:07.046Z,82.63
2023-09-22T05:46:06.814Z,82.58
2023-09-22T05:47:06.752Z,82.29
2023-09-22T05:48:06.777Z,82.22
2023-09-22T05:49:06.763Z,82.13
2023-09-22T05:50:06.717Z,82.34
2023-09-22T05:51:07.037Z,82.53
2023-09-22T05:52:06.723Z,82.06
2023-09-22T05:53:06.686Z,82.20
2023-09-22T05:54:06.668Z,82.03
2023-09-22T05:55:06.697Z,82.16
2023-09-22T05:56:06.647Z,82.41
2023-09-22T05:57:07.067Z,82.25
2023-09-22T05:58:06.641Z,82.20
2023-09-22T05:59:06.619Z,82.11
2023-09-22T06:00:06.592Z,82.04
2023-09-22T06:01:06.687Z,82.57
2023-09-22T06:02:06.579Z,82.67
2023-09-22T06:03:06.628Z,82.30
2023-09-22T06:04:06.694Z,82.46
2023-09-22T06:05:06.539Z,82.27
2023-09-22T06:06:06.529Z,82.38
2023-09-22T06:07:06.596Z,82.13
2023-09-22T06:08:06.509Z,82.27
2023-09-22T06:09:06.487Z,81.84
2023-09-22T06:10:06.548Z,81.67
2023-09-22T06:11:06.498Z,81.60
2023-09-22T06:12:06.487Z,81.37
2023-09-22T06:13:06.514Z,81.43
2023-09-22T06:14:06.458Z,81.28
2023-09-22T06:15:06.409Z,80.81
2023-09-22T06:16:06.452Z,81.08
2023-09-22T06:17:06.411Z,80.87
2023-09-22T06:18:06.504Z,81.02
2023-09-22T06:19:06.399Z,81.17
2023-09-22T06:20:06.370Z,80.41
2023-09-22T06:21:06.367Z,80.36
2023-09-22T06:22:06.401Z,80.31
2023-09-22T06:23:06.353Z,80.51
2023-09-22T06:24:06.361Z,80.74
2023-09-22T06:25:06.367Z,81.20
2023-09-22T06:26:06.393Z,80.31
2023-09-22T06:27:06.306Z,80.12
2023-09-22T06:28:06.326Z,80.92
2023-09-22T06:29:06.280Z,81.70
2023-09-22T06:30:06.338Z,81.41
2023-09-22T06:31:06.286Z,82.02
2023-09-22T06:32:06.265Z,82.92
2023-09-22T06:33:06.292Z,83.57
2023-09-22T06:34:06.337Z,84.10
2023-09-22T06:35:06.253Z,84.06
2023-09-22T06:36:06.277Z,84.35
2023-09-22T06:37:06.310Z,84.32
2023-09-22T06:38:06.218Z,84.43
2023-09-22T06:39:06.231Z,83.96
2023-09-22T06:40:06.218Z,84.49
2023-09-22T06:41:06.151Z,83.65
2023-09-22T06:42:06.202Z,84.11
2023-09-22T06:43:20.556Z,84.36
2023-09-22T06:44:06.149Z,84.82
2023-09-22T06:45:06.122Z,84.86
2023-09-22T06:46:06.403Z,84.26
2023-09-22T06:47:06.213Z,84.82
2023-09-22T06:48:06.092Z,84.79
2023-09-22T06:49:06.107Z,85.12
2023-09-22T06:50:06.075Z,84.84
2023-09-22T06:51:06.049Z,85.06
2023-09-22T06:52:06.110Z,84.88
2023-09-22T06:53:06.061Z,85.21
2023-09-22T06:54:06.029Z,83.78
2023-09-22T06:55:06.078Z,83.86
2023-09-22T06:56:06.014Z,83.74
2023-09-22T06:57:06.004Z,83.30
2023-09-22T06:58:06.018Z,83.53
2023-09-22T06:59:06.585Z,84.36
2023-09-22T07:00:05.946Z,84.23
2023-09-22T07:01:06.046Z,84.70
2023-09-22T07:02:05.977Z,84.52
2023-09-22T07:03:05.987Z,82.61
2023-09-22T07:04:06.037Z,81.66
2023-09-22T07:05:05.926Z,81.64
2023-09-22T07:06:05.906Z,81.55
2023-09-22T07:07:05.934Z,82.03
2023-09-22T07:08:05.881Z,81.96
2023-09-22T07:09:05.869Z,81.52
2023-09-22T07:10:05.931Z,81.25
2023-09-22T07:11:05.831Z,80.69
2023-09-22T07:12:05.839Z,81.33
2023-09-22T07:13:05.856Z,81.22
2023-09-22T07:14:05.814Z,80.13
2023-09-22T07:15:05.844Z,79.58
2023-09-22T07:16:05.878Z,79.56
2023-09-22T07:17:05.846Z,80.55
2023-09-22T07:18:05.832Z,80.44
2023-09-22T07:19:05.889Z,79.99
2023-09-22T07:20:05.762Z,79.35
2023-09-22T07:21:06.079Z,79.16
2023-09-22T07:22:05.755Z,78.44
2023-09-22T07:23:05.735Z,78.81
2023-09-22T07:24:05.708Z,78.77
2023-09-22T07:25:05.780Z,79.21
2023-09-22T07:26:05.708Z,78.92
2023-09-22T07:27:05.712Z,78.67
2023-09-22T07:28:05.685Z,78.79
2023-09-22T07:29:05.653Z,79.35
2023-09-22T07:30:05.653Z,79.93
2023-09-22T07:31:05.726Z,80.05
2023-09-22T07:32:05.654Z,78.85
2023-09-22T07:33:06.064Z,77.74
2023-09-22T07:34:05.923Z,77.96
2023-09-22T07:35:05.610Z,78.80
2023-09-22T07:36:05.594Z,78.51
2023-09-22T07:37:18.916Z,77.96
2023-09-22T07:38:05.574Z,77.87
2023-09-22T07:39:05.596Z,77.82
2023-09-22T07:40:05.614Z,77.73
2023-09-22T07:41:05.559Z,77.89
2023-09-22T07:42:05.523Z,78.08
2023-09-22T07:43:05.560Z,79.08
2023-09-22T07:44:05.562Z,77.59
2023-09-22T07:45:05.535Z,76.78
2023-09-22T07:46:05.822Z,76.55
2023-09-22T07:47:05.485Z,76.58
2023-09-22T07:48:05.472Z,77.45
2023-09-22T07:49:05.486Z,77.61
2023-09-22T07:50:05.477Z,78.71
2023-09-22T07:51:05.462Z,78.35
2023-09-22T07:52:05.452Z,77.97
2023-09-22T07:53:05.411Z,78.51
2023-09-22T07:54:05.371Z,79.04
2023-09-22T07:55:05.475Z,78.38
2023-09-22T07:56:05.388Z,76.81
2023-09-22T07:57:05.376Z,78.50
2023-09-22T07:58:05.372Z,78.16
2023-09-22T07:59:13.637Z,78.31
2023-09-22T08:00:05.389Z,78.51
2023-09-22T08:01:05.409Z,78.92
2023-09-22T08:02:05.315Z,79.34
2023-09-22T08:03:05.388Z,79.13
2023-09-22T08:04:05.365Z,79.10
2023-09-22T08:05:05.290Z,78.65
2023-09-22T08:06:05.312Z,77.85
2023-09-22T08:07:05.283Z,78.31
2023-09-22T08:08:05.244Z,77.34
2023-09-22T08:09:05.234Z,76.87
2023-09-22T08:10:05.367Z,77.25
2023-09-22T08:11:05.307Z,77.37
2023-09-22T08:12:05.222Z,77.72
2023-09-22T08:13:05.214Z,78.06
2023-09-22T08:14:05.181Z,78.73
2023-09-22T08:15:05.174Z,79.38
2023-09-22T08:16:05.294Z,79.73
2023-09-22T08:17:05.620Z,80.06
2023-09-22T08:18:05.188Z,80.26
2023-09-22T08:19:05.176Z,79.92
2023-09-22T08:20:05.133Z,78.72
2023-09-22T08:21:05.120Z,78.12
2023-09-22T08:22:05.162Z,79.23
2023-09-22T08:23:05.212Z,79.05
2023-09-22T08:24:05.099Z,78.72
2023-09-22T08:25:05.111Z,78.48
2023-09-22T08:26:05.055Z,78.23
2023-09-22T08:27:05.064Z,78.82
2023-09-22T08:28:05.045Z,79.16
2023-09-22T08:29:05.060Z,79.76
2023-09-22T08:30:05.025Z,79.95
2023-09-22T08:31:05.076Z,79.10
2023-09-22T08:32:05.662Z,79.40
2023-09-22T08:33:05.014Z,79.27
2023-09-22T08:34:05.067Z,79.67
2023-09-22T08:35:04.967Z,79.72
2023-09-22T08:36:04.986Z,79.84
2023-09-22T08:37:04.997Z,79.71
2023-09-22T08:38:04.962Z,79.80
2023-09-22T08:39:04.921Z,79.98
2023-09-22T08:40:05.002Z,80.43
2023-09-22T08:41:04.964Z,81.08
2023-09-22T08:42:04.895Z,81.26
2023-09-22T08:43:04.952Z,81.25
2023-09-22T08:44:04.901Z,81.55
2023-09-22T08:45:04.870Z,81.59
2023-09-22T08:46:04.953Z,82.01
2023-09-22T08:47:04.888Z,81.64
2023-09-22T08:48:04.961Z,81.21
2023-09-22T08:49:04.911Z,81.56
2023-09-22T08:50:04.815Z,82.28
2023-09-22T08:51:04.852Z,81.78
2023-09-22T08:52:04.846Z,82.14
2023-09-22T08:53:04.789Z,82.67
2023-09-22T08:54:04.782Z,81.95
2023-09-22T08:55:04.826Z,82.50
2023-09-22T08:56:04.783Z,82.48
2023-09-22T08:57:04.811Z,82.32
2023-09-22T08:58:04.837Z,82.03
2023-09-22T09:00:15.009Z,81.55
2023-09-22T09:01:16.025Z,82.45
2023-09-22T09:02:16.104Z,82.70
2023-09-22T09:03:16.076Z,83.28
2023-09-22T09:04:15.958Z,83.38
2023-09-22T09:05:18.598Z,83.33
2023-09-22T09:06:15.932Z,83.51
2023-09-22T09:07:16.066Z,83.53
2023-09-22T09:08:16.418Z,83.76
2023-09-22T09:09:15.917Z,84.08
2023-09-22T09:10:15.898Z,83.95
2023-09-22T09:11:15.868Z,83.91
2023-09-22T09:12:15.851Z,83.90
2023-09-22T09:13:15.941Z,83.55
2023-09-22T09:14:15.836Z,84.07
2023-09-22T09:15:15.827Z,83.84
2023-09-22T09:16:15.817Z,84.10
2023-09-22T09:17:15.815Z,84.55
2023-09-22T09:18:15.784Z,84.41
2023-09-22T09:19:15.836Z,84.29
2023-09-22T09:20:15.757Z,84.26
2023-09-22T09:21:15.761Z,84.42
2023-09-22T09:22:15.745Z,84.49
2023-09-22T09:23:15.726Z,84.80
2023-09-22T09:24:15.712Z,85.02
2023-09-22T09:25:15.856Z,85.02
2023-09-22T09:26:15.700Z,85.12
2023-09-22T09:27:15.699Z,85.23
2023-09-22T09:28:15.706Z,85.30
2023-09-22T09:29:15.655Z,85.49
2023-09-22T09:30:15.654Z,85.37
2023-09-22T09:31:15.776Z,85.18
2023-09-22T09:32:15.612Z,85.13
2023-09-22T09:33:15.618Z,85.26
2023-09-22T09:34:15.993Z,85.53
2023-09-22T09:35:16.174Z,85.69
2023-09-22T09:36:15.608Z,85.59
2023-09-22T09:37:15.660Z,85.96
2023-09-22T09:38:15.557Z,86.06
2023-09-22T09:39:15.557Z,86.26
2023-09-22T09:40:15.576Z,85.86
2023-09-22T09:41:15.589Z,86.11
2023-09-22T09:42:15.519Z,85.72
2023-09-22T09:43:15.533Z,86.13
2023-09-22T09:44:16.230Z,86.60
2023-09-22T09:45:15.497Z,85.70
2023-09-22T09:46:15.551Z,85.72
2023-09-22T09:47:15.465Z,86.65
2023-09-22T09:48:15.435Z,86.72
2023-09-22T09:49:15.573Z,86.43
2023-09-22T09:50:15.453Z,87.09
2023-09-22T09:51:15.920Z,86.93
2023-09-22T09:52:15.478Z,86.63
2023-09-22T09:53:15.426Z,86.78
2023-09-22T09:54:15.415Z,87.24
2023-09-22T09:55:15.451Z,87.09
2023-09-22T09:56:15.352Z,87.02
2023-09-22T09:57:15.396Z,87.26
2023-09-22T09:58:15.365Z,87.29
2023-09-22T09:59:15.350Z,87.76
2023-09-22T10:00:15.340Z,87.24
2023-09-22T10:01:15.462Z,87.34
2023-09-22T10:02:15.442Z,87.73
2023-09-22T10:03:15.404Z,87.51
2023-09-22T10:04:15.345Z,87.23
2023-09-22T10:05:15.263Z,87.32
2023-09-22T10:06:15.248Z,87.35
2023-09-22T10:07:15.253Z,86.98
2023-09-22T10:08:15.287Z,87.13
2023-09-22T10:09:15.228Z,87.16
2023-09-22T10:10:15.340Z,87.55
2023-09-22T10:11:15.205Z,87.34
2023-09-22T10:12:15.206Z,87.50
2023-09-22T10:13:15.230Z,87.76
2023-09-22T10:14:16.396Z,87.54
2023-09-22T10:15:15.163Z,87.52
2023-09-22T10:16:15.233Z,87.82
2023-09-22T10:17:15.143Z,87.30
2023-09-22T10:18:15.129Z,87.12
2023-09-22T10:19:15.175Z,87.84
2023-09-22T10:20:15.160Z,87.41
2023-09-22T10:21:15.105Z,87.92
2023-09-22T10:22:15.138Z,87.41
2023-09-22T10:23:15.110Z,87.38
2023-09-22T10:24:15.074Z,87.54
2023-09-22T10:25:15.453Z,87.22
2023-09-22T10:26:15.414Z,87.49
2023-09-22T10:27:15.281Z,87.47
2023-09-22T10:28:15.069Z,86.84
2023-09-22T10:29:15.015Z,86.78
2023-09-22T10:30:15.022Z,87.07
2023-09-22T10:31:15.061Z,87.05
2023-09-22T10:32:15.028Z,87.01
2023-09-22T10:33:14.983Z,86.90
2023-09-22T10:34:14.978Z,86.97
2023-09-22T10:35:14.940Z,86.71
2023-09-22T10:36:14.944Z,87.06
2023-09-22T10:37:14.946Z,86.38
2023-09-22T10:38:14.978Z,86.67
2023-09-22T10:39:14.924Z,87.22
2023-09-22T10:40:15.022Z,86.97
2023-09-22T10:41:14.879Z,86.08
2023-09-22T10:42:14.898Z,86.03
2023-09-22T10:43:14.990Z,85.96
2023-09-22T10:44:14.855Z,86.16
2023-09-22T10:45:14.863Z,86.04
2023-09-22T10:46:14.938Z,86.42
2023-09-22T10:47:14.834Z,86.42
2023-09-22T10:48:14.865Z,85.98
2023-09-22T10:49:14.843Z,85.99
2023-09-22T10:50:14.803Z,86.13
2023-09-22T10:51:14.825Z,85.61
2023-09-22T10:52:14.774Z,86.14
2023-09-22T10:53:14.792Z,85.32
2023-09-22T10:54:15.341Z,86.04
2023-09-22T10:55:14.776Z,85.88
2023-09-22T10:56:14.718Z,86.09
2023-09-22T10:57:14.733Z,86.02
2023-09-22T10:58:15.473Z,86.18
2023-09-22T10:59:14.713Z,86.60
2023-09-22T11:00:14.698Z,86.20
2023-09-22T11:01:14.768Z,86.30
2023-09-22T11:02:14.776Z,85.93
2023-09-22T11:03:14.671Z,85.37
2023-09-22T11:04:14.763Z,85.56
2023-09-22T11:05:14.836Z,85.89
2023-09-22T11:06:14.716Z,85.69
2023-09-22T11:07:14.693Z,86.32
2023-09-22T11:08:14.844Z,86.09
2023-09-22T11:09:14.631Z,85.87
2023-09-22T11:10:14.604Z,85.72
2023-09-22T11:11:14.564Z,85.70
2023-09-22T11:12:14.568Z,85.59
2023-09-22T11:13:14.648Z,85.21
2023-09-22T11:14:14.592Z,85.73
2023-09-22T11:15:14.537Z,85.75
2023-09-22T11:16:14.629Z,85.93
2023-09-22T11:17:14.607Z,84.72
2023-09-22T11:18:16.190Z,84.84
2023-09-22T11:19:14.985Z,85.42
2023-09-22T11:20:14.493Z,85.49
2023-09-22T11:21:14.461Z,85.52
2023-09-22T11:22:14.503Z,85.21
2023-09-22T11:23:14.458Z,85.58
2023-09-22T11:24:14.464Z,85.42
2023-09-22T11:25:14.457Z,85.78
2023-09-22T11:26:14.441Z,85.71
2023-09-22T11:27:14.418Z,85.24
2023-09-22T11:28:14.450Z,84.73
2023-09-22T11:29:14.467Z,84.34
2023-09-22T11:30:14.373Z,84.16
2023-09-22T11:31:14.465Z,84.34
2023-09-22T11:32:14.438Z,83.90
2023-09-22T11:33:14.355Z,83.35
2023-09-22T11:34:14.393Z,83.26
2023-09-22T11:35:25.980Z,83.55
2023-09-22T11:36:14.326Z,83.36
2023-09-22T11:37:14.318Z,82.93
2023-09-22T11:38:14.270Z,82.64
2023-09-22T11:39:14.260Z,82.81
2023-09-22T11:40:14.284Z,83.25
2023-09-22T11:41:14.302Z,83.36
2023-09-22T11:42:14.228Z,83.04
2023-09-22T11:43:14.254Z,83.16
2023-09-22T11:44:14.262Z,83.27
2023-09-22T11:45:14.201Z,83.12
2023-09-22T11:46:14.331Z,83.62
2023-09-22T11:47:14.241Z,83.80
2023-09-22T11:48:14.163Z,84.14
2023-09-22T11:49:14.173Z,84.06
2023-09-22T11:50:14.148Z,83.74
2023-09-22T11:51:15.594Z,83.36
2023-09-22T11:52:14.171Z,83.52
2023-09-22T11:53:14.111Z,83.19
2023-09-22T11:54:16.251Z,82.26
2023-09-22T11:55:14.183Z,82.99
2023-09-22T11:56:14.081Z,83.42
2023-09-22T11:57:14.500Z,84.19
2023-09-22T11:58:14.138Z,84.75
2023-09-22T11:59:14.047Z,85.55
2023-09-22T12:00:14.034Z,85.67
2023-09-22T12:01:14.128Z,86.04
2023-09-22T12:02:14.115Z,86.56
2023-09-22T12:03:14.195Z,87.24
2023-09-22T12:04:14.035Z,86.97
2023-09-22T12:05:14.025Z,87.54
2023-09-22T12:06:13.985Z,87.94
2023-09-22T12:07:14.014Z,88.44
2023-09-22T12:08:13.997Z,88.73
2023-09-22T12:09:14.088Z,88.68
2023-09-22T12:10:13.938Z,87.92
2023-09-22T12:11:13.922Z,87.92
2023-09-22T12:12:13.932Z,87.86
2023-09-22T12:13:13.920Z,88.15
2023-09-22T12:14:14.109Z,88.19
2023-09-22T12:15:13.860Z,87.77
2023-09-22T12:16:13.937Z,88.42
2023-09-22T12:17:13.922Z,88.61
2023-09-22T12:18:13.866Z,88.31
2023-09-22T12:19:13.836Z,86.81
2023-09-22T12:20:13.830Z,87.20
2023-09-22T12:21:13.828Z,87.78
2023-09-22T12:22:13.838Z,87.74
2023-09-22T12:23:13.799Z,87.84
2023-09-22T12:24:13.787Z,87.91
2023-09-22T12:25:13.897Z,87.78
2023-09-22T12:26:13.783Z,88.14
2023-09-22T12:27:13.739Z,88.77
2023-09-22T12:28:13.796Z,89.07
2023-09-22T12:29:13.740Z,89.40
2023-09-22T12:30:13.702Z,90.08
2023-09-22T12:31:13.842Z,90.38
2023-09-22T12:32:13.754Z,90.68
2023-09-22T12:33:13.699Z,91.45
2023-09-22T12:34:13.747Z,91.90
2023-09-22T12:35:13.663Z,92.50
2023-09-22T12:36:13.651Z,92.68
2023-09-22T12:37:13.682Z,92.84
2023-09-22T12:38:13.627Z,93.01
2023-09-22T12:39:13.621Z,93.40
2023-09-22T12:40:13.664Z,93.23
2023-09-22T12:41:13.590Z,93.23
2023-09-22T12:42:13.625Z,93.32
2023-09-22T12:43:13.577Z,93.82
2023-09-22T12:44:13.558Z,94.12
2023-09-22T12:45:13.568Z,93.56
2023-09-22T12:46:13.661Z,93.30
2023-09-22T12:47:13.555Z,93.12
2023-09-22T12:48:13.582Z,93.58
2023-09-22T12:49:13.607Z,94.19
2023-09-22T12:50:13.514Z,94.37
2023-09-22T12:51:13.513Z,93.68
2023-09-22T12:52:13.580Z,93.63
2023-09-22T12:53:13.442Z,94.13